createdAt,value
2023-05-18T00:00:54.482Z,0.00
2023-05-18T00:01:54.468Z,0.00
2023-05-18T00:02:54.561Z,0.00
2023-05-18T00:03:54.556Z,0.00
2023-05-18T00:04:54.671Z,0.00
2023-05-18T00:05:54.496Z,0.00
2023-05-18T00:06:54.489Z,0.00
2023-05-18T00:07:54.472Z,0.00
2023-05-18T00:08:54.479Z,0.00
2023-05-18T00:09:54.517Z,0.00
2023-05-18T00:10:54.461Z,0.00
2023-05-18T00:11:54.478Z,0.00
2023-05-18T00:12:54.475Z,0.00
2023-05-18T00:13:54.471Z,0.00
2023-05-18T00:14:54.471Z,0.00
2023-05-18T00:15:54.482Z,0.00
2023-05-18T00:16:54.458Z,0.00
2023-05-18T00:17:54.601Z,0.00
2023-05-18T00:18:54.476Z,0.00
2023-05-18T00:19:54.460Z,0.00
2023-05-18T00:20:54.462Z,0.00
2023-05-18T00:21:54.496Z,0.00
2023-05-18T00:22:54.460Z,0.00
2023-05-18T00:23:54.465Z,0.00
2023-05-18T00:24:54.563Z,0.00
2023-05-18T00:25:54.467Z,0.00
2023-05-18T00:26:54.466Z,0.00
2023-05-18T00:27:54.465Z,0.00
2023-05-18T00:28:54.509Z,0.00
2023-05-18T00:29:54.459Z,0.00
2023-05-18T00:30:54.455Z,0.00
2023-05-18T00:31:54.486Z,0.00
2023-05-18T00:32:54.638Z,0.00
2023-05-18T00:33:54.465Z,0.00
2023-05-18T00:34:54.459Z,0.00
2023-05-18T00:35:54.469Z,0.00
2023-05-18T00:36:54.456Z,0.00
2023-05-18T00:37:54.613Z,0.00
2023-05-18T00:38:54.459Z,0.00
2023-05-18T00:39:54.463Z,0.00
2023-05-18T00:40:54.456Z,0.00
2023-05-18T00:41:54.467Z,0.00
2023-05-18T00:42:54.476Z,0.00
2023-05-18T00:43:54.465Z,0.00
2023-05-18T00:44:54.458Z,0.00
2023-05-18T00:45:54.571Z,0.00
2023-05-18T00:46:54.458Z,0.00
2023-05-18T00:47:54.554Z,0.00
2023-05-18T00:48:54.451Z,0.00
2023-05-18T00:49:54.468Z,0.00
2023-05-18T00:50:54.462Z,0.00
2023-05-18T00:51:54.467Z,0.00
2023-05-18T00:52:54.453Z,0.00
2023-05-18T00:53:54.553Z,0.00
2023-05-18T00:54:54.457Z,0.00
2023-05-18T00:55:54.457Z,0.00
2023-05-18T00:56:54.455Z,0.00
2023-05-18T00:57:54.452Z,0.00
2023-05-18T00:58:54.463Z,0.00
2023-05-18T00:59:54.457Z,0.00
2023-05-18T01:00:54.494Z,0.00
2023-05-18T01:01:54.497Z,0.00
2023-05-18T01:02:54.583Z,0.00
2023-05-18T01:03:54.453Z,0.00
2023-05-18T01:04:54.452Z,0.00
2023-05-18T01:05:54.453Z,0.00
2023-05-18T01:06:54.446Z,0.00
2023-05-18T01:07:54.452Z,0.00
2023-05-18T01:08:54.445Z,0.00
2023-05-18T01:09:54.469Z,0.00
2023-05-18T01:10:54.455Z,0.00
2023-05-18T01:11:54.453Z,0.00
2023-05-18T01:12:54.442Z,0.00
2023-05-18T01:13:54.441Z,0.00
2023-05-18T01:14:54.441Z,0.00
2023-05-18T01:15:54.480Z,0.00
2023-05-18T01:16:54.502Z,0.00
2023-05-18T01:17:54.451Z,0.00
2023-05-18T01:18:54.484Z,0.00
2023-05-18T01:19:54.450Z,0.00
2023-05-18T01:20:54.439Z,0.00
2023-05-18T01:21:54.440Z,0.00
2023-05-18T01:22:54.437Z,0.00
2023-05-18T01:23:54.447Z,0.00
2023-05-18T01:24:54.434Z,0.00
2023-05-18T01:25:54.532Z,0.00
2023-05-18T01:26:54.436Z,0.00
2023-05-18T01:27:54.440Z,0.00
2023-05-18T01:28:54.433Z,0.00
2023-05-18T01:29:54.447Z,0.00
2023-05-18T01:30:54.487Z,0.00
2023-05-18T01:31:54.438Z,0.00
2023-05-18T01:32:54.506Z,0.00
2023-05-18T01:33:54.450Z,0.00
2023-05-18T01:34:54.438Z,0.00
2023-05-18T01:35:54.440Z,0.00
2023-05-18T01:36:54.428Z,0.00
2023-05-18T01:37:54.435Z,0.00
2023-05-18T01:38:54.425Z,0.00
2023-05-18T01:39:54.429Z,0.00
2023-05-18T01:40:54.448Z,0.00
2023-05-18T01:41:54.455Z,0.00
2023-05-18T01:42:54.425Z,0.00
2023-05-18T01:43:54.428Z,0.00
2023-05-18T01:44:54.423Z,0.00
2023-05-18T01:47:38.260Z,0.00
2023-05-18T01:48:38.163Z,0.00
2023-05-18T01:49:38.161Z,0.00
2023-05-18T01:50:38.158Z,0.00
2023-05-18T01:51:38.150Z,0.00
2023-05-18T01:52:38.168Z,0.00
2023-05-18T01:53:38.155Z,0.00
2023-05-18T01:54:38.144Z,0.00
2023-05-18T01:55:38.142Z,0.00
2023-05-18T01:56:38.150Z,0.00
2023-05-18T01:57:38.176Z,0.00
2023-05-18T01:58:38.145Z,0.00
2023-05-18T01:59:38.140Z,0.00
2023-05-18T02:00:38.141Z,0.00
2023-05-18T02:01:38.193Z,0.00
2023-05-18T02:02:38.263Z,0.00
2023-05-18T02:03:38.232Z,0.00
2023-05-18T02:04:38.141Z,0.00
2023-05-18T02:05:38.140Z,0.00
2023-05-18T02:06:38.135Z,0.00
2023-05-18T02:07:38.138Z,0.00
2023-05-18T02:08:38.138Z,0.00
2023-05-18T02:09:38.138Z,0.00
2023-05-18T02:10:38.135Z,0.00
2023-05-18T02:11:38.131Z,0.00
2023-05-18T02:12:38.136Z,0.00
2023-05-18T02:13:38.154Z,0.00
2023-05-18T02:14:38.130Z,0.00
2023-05-18T02:15:38.126Z,0.00
2023-05-18T02:16:38.188Z,0.00
2023-05-18T02:17:38.301Z,0.00
2023-05-18T02:18:38.139Z,0.00
2023-05-18T02:19:38.246Z,0.00
2023-05-18T02:20:38.145Z,0.00
2023-05-18T02:21:38.128Z,0.00
2023-05-18T02:22:38.121Z,0.00
2023-05-18T02:23:38.117Z,0.00
2023-05-18T02:24:38.121Z,0.00
2023-05-18T02:25:38.118Z,0.00
2023-05-18T02:26:38.121Z,0.00
2023-05-18T02:27:38.125Z,0.00
2023-05-18T02:28:38.121Z,0.00
2023-05-18T02:29:38.239Z,0.00
2023-05-18T02:30:38.115Z,4.00
2023-05-18T02:31:38.190Z,4.00
2023-05-18T02:32:38.159Z,4.00
2023-05-18T02:33:38.111Z,0.00
2023-05-18T02:34:38.115Z,0.00
2023-05-18T02:35:38.119Z,0.00
2023-05-18T02:36:38.114Z,0.00
2023-05-18T02:37:38.112Z,4.00
2023-05-18T02:38:38.122Z,4.00
2023-05-18T02:39:38.112Z,4.00
2023-05-18T02:40:38.118Z,4.00
2023-05-18T02:41:38.106Z,4.00
2023-05-18T02:42:38.107Z,4.00
2023-05-18T02:43:38.106Z,8.00
2023-05-18T02:44:38.107Z,8.00
2023-05-18T02:45:38.148Z,8.00
2023-05-18T02:46:38.112Z,8.00
2023-05-18T02:47:38.131Z,12.00
2023-05-18T02:48:38.126Z,12.00
2023-05-18T02:49:38.120Z,12.00
2023-05-18T02:50:38.120Z,16.00
2023-05-18T02:51:38.109Z,16.00
2023-05-18T02:52:38.106Z,16.00
2023-05-18T02:53:38.101Z,20.00
2023-05-18T02:54:38.124Z,20.00
2023-05-18T02:55:38.104Z,28.00
2023-05-18T02:56:38.102Z,32.00
2023-05-18T02:57:38.102Z,32.00
2023-05-18T02:58:38.109Z,36.00
2023-05-18T02:59:38.113Z,36.00
2023-05-18T03:00:38.112Z,44.00
2023-05-18T03:01:38.187Z,48.00
2023-05-18T03:02:38.163Z,52.00
2023-05-18T03:03:38.160Z,56.00
2023-05-18T03:04:38.107Z,60.00
2023-05-18T03:05:38.099Z,68.00
2023-05-18T03:06:38.100Z,68.00
2023-05-18T03:07:38.097Z,76.00
2023-05-18T03:08:38.099Z,84.00
2023-05-18T03:09:38.098Z,92.00
2023-05-18T03:10:38.105Z,96.00
2023-05-18T03:11:38.095Z,104.00
2023-05-18T03:12:38.104Z,112.00
2023-05-18T03:13:38.098Z,120.00
2023-05-18T03:14:38.092Z,132.00
2023-05-18T03:15:38.092Z,140.00
2023-05-18T03:16:38.194Z,148.00
2023-05-18T03:17:38.216Z,156.00
2023-05-18T03:18:38.163Z,164.00
2023-05-18T03:19:38.095Z,176.00
2023-05-18T03:20:38.136Z,184.00
2023-05-18T03:21:38.110Z,192.00
2023-05-18T03:22:38.100Z,208.00
2023-05-18T03:23:38.105Z,216.00
2023-05-18T03:24:38.093Z,228.00
2023-05-18T03:25:38.084Z,236.00
2023-05-18T03:26:38.091Z,248.00
2023-05-18T03:27:38.096Z,260.00
2023-05-18T03:28:38.093Z,264.00
2023-05-18T03:29:38.085Z,280.00
2023-05-18T03:30:38.085Z,292.00
2023-05-18T03:31:38.159Z,300.00
2023-05-18T03:32:38.229Z,316.00
2023-05-18T03:33:38.173Z,328.00
2023-05-18T03:34:38.082Z,340.00
2023-05-18T03:35:38.085Z,352.00
2023-05-18T03:36:38.087Z,364.00
2023-05-18T03:37:38.082Z,380.00
2023-05-18T03:38:38.077Z,388.00
2023-05-18T03:39:38.078Z,404.00
2023-05-18T03:40:38.077Z,420.00
2023-05-18T03:41:38.082Z,436.00
2023-05-18T03:42:38.079Z,452.00
2023-05-18T03:43:38.080Z,464.00
2023-05-18T03:44:38.133Z,476.00
2023-05-18T03:45:38.077Z,496.00
2023-05-18T03:46:38.131Z,508.00
2023-05-18T03:47:38.126Z,520.00
2023-05-18T03:48:38.093Z,532.00
2023-05-18T03:49:38.099Z,548.00
2023-05-18T03:50:38.074Z,560.00
2023-05-18T03:51:38.073Z,572.00
2023-05-18T03:52:38.070Z,584.00
2023-05-18T03:53:38.067Z,596.00
2023-05-18T03:54:38.073Z,612.00
2023-05-18T03:55:38.070Z,624.00
2023-05-18T03:56:38.066Z,640.00
2023-05-18T03:57:38.083Z,648.00
2023-05-18T03:58:38.064Z,660.00
2023-05-18T03:59:38.063Z,672.00
2023-05-18T04:00:38.071Z,684.00
2023-05-18T04:01:38.113Z,696.00
2023-05-18T04:02:38.321Z,708.00
2023-05-18T04:03:38.219Z,716.00
2023-05-18T04:04:38.054Z,728.00
2023-05-18T04:05:38.079Z,740.00
2023-05-18T04:06:38.074Z,752.00
2023-05-18T04:07:38.062Z,760.00
2023-05-18T04:08:38.071Z,772.00
2023-05-18T04:09:38.069Z,784.00
2023-05-18T04:10:38.056Z,792.00
2023-05-18T04:11:38.052Z,804.00
2023-05-18T04:12:38.060Z,816.00
2023-05-18T04:13:38.056Z,828.00
2023-05-18T04:14:38.053Z,840.00
2023-05-18T04:15:38.092Z,848.00
2023-05-18T04:16:38.086Z,860.00
2023-05-18T04:17:38.093Z,868.00
2023-05-18T04:18:38.052Z,880.00
2023-05-18T04:19:38.208Z,888.00
2023-05-18T04:20:38.063Z,900.00
2023-05-18T04:21:38.073Z,908.00
2023-05-18T04:22:38.050Z,920.00
2023-05-18T04:23:38.044Z,932.00
2023-05-18T04:24:38.044Z,944.00
2023-05-18T04:25:38.042Z,956.00
2023-05-18T04:26:38.048Z,968.00
2023-05-18T04:27:38.039Z,972.00
2023-05-18T04:28:38.038Z,984.00
2023-05-18T04:29:38.034Z,992.00
2023-05-18T04:30:38.034Z,1004.00
2023-05-18T04:31:38.114Z,1016.00
2023-05-18T04:32:38.196Z,1024.00
2023-05-18T04:33:38.046Z,1036.00
2023-05-18T04:34:38.094Z,1048.00
2023-05-18T04:35:38.040Z,1060.00
2023-05-18T04:36:38.029Z,1068.00
2023-05-18T04:37:38.057Z,1080.00
2023-05-18T04:38:38.035Z,1088.00
2023-05-18T04:39:38.025Z,1100.00
2023-05-18T04:40:38.044Z,1108.00
2023-05-18T04:41:38.020Z,1116.00
2023-05-18T04:42:38.028Z,1128.00
2023-05-18T04:43:38.035Z,1136.00
2023-05-18T04:44:38.028Z,1152.00
2023-05-18T04:45:38.040Z,1156.00
2023-05-18T04:46:38.022Z,1168.00
2023-05-18T04:47:38.135Z,1172.00
2023-05-18T04:48:38.018Z,1180.00
2023-05-18T04:49:38.014Z,1188.00
2023-05-18T04:50:38.026Z,1196.00
2023-05-18T04:51:38.016Z,1208.00
2023-05-18T04:52:38.016Z,1212.00
2023-05-18T04:53:38.044Z,1220.00
2023-05-18T04:54:38.008Z,1228.00
2023-05-18T04:55:38.010Z,1236.00
2023-05-18T04:56:38.012Z,1244.00
2023-05-18T04:57:38.008Z,1248.00
2023-05-18T04:58:38.014Z,1260.00
2023-05-18T04:59:38.005Z,1264.00
2023-05-18T05:00:38.010Z,1268.00
2023-05-18T05:01:38.059Z,1280.00
2023-05-18T05:02:38.057Z,1284.00
2023-05-18T05:03:38.044Z,1300.00
2023-05-18T05:04:38.036Z,1308.00
2023-05-18T05:05:38.015Z,1316.00
2023-05-18T05:06:38.004Z,1324.00
2023-05-18T05:07:37.994Z,1332.00
2023-05-18T05:08:38.003Z,1340.00
2023-05-18T05:09:38.028Z,1352.00
2023-05-18T05:10:38.047Z,1360.00
2023-05-18T05:11:37.985Z,1372.00
2023-05-18T05:12:37.993Z,1384.00
2023-05-18T05:13:37.988Z,1392.00
2023-05-18T05:14:37.990Z,1404.00
2023-05-18T05:15:38.043Z,1412.00
2023-05-18T05:16:37.993Z,1424.00
2023-05-18T05:17:38.007Z,1436.00
2023-05-18T05:18:38.028Z,1448.00
2023-05-18T05:19:37.981Z,1456.00
2023-05-18T05:20:37.995Z,1468.00
2023-05-18T05:21:37.984Z,1480.00
2023-05-18T05:22:38.030Z,1492.00
2023-05-18T05:23:37.984Z,1496.00
2023-05-18T05:24:37.980Z,1504.00
2023-05-18T05:25:38.034Z,1512.00
2023-05-18T05:26:38.002Z,1524.00
2023-05-18T05:27:37.972Z,1532.00
2023-05-18T05:28:37.985Z,1548.00
2023-05-18T05:29:37.975Z,1556.00
2023-05-18T05:30:37.979Z,1568.00
2023-05-18T05:31:38.065Z,1580.00
2023-05-18T05:32:38.064Z,1592.00
2023-05-18T05:33:37.973Z,1608.00
2023-05-18T05:34:37.973Z,1624.00
2023-05-18T05:35:38.295Z,1636.00
2023-05-18T05:36:37.974Z,1648.00
2023-05-18T05:37:37.963Z,1660.00
2023-05-18T05:38:37.982Z,1672.00
2023-05-18T05:39:37.970Z,1688.00
2023-05-18T05:40:37.967Z,1704.00
2023-05-18T05:41:37.988Z,1716.00
2023-05-18T05:42:37.975Z,1732.00
2023-05-18T05:43:37.973Z,1744.00
2023-05-18T05:44:37.970Z,1764.00
2023-05-18T05:45:37.963Z,1776.00
2023-05-18T05:46:38.037Z,1780.00
2023-05-18T05:47:38.030Z,1796.00
2023-05-18T05:48:37.973Z,1804.00
2023-05-18T05:49:37.966Z,1816.00
2023-05-18T05:50:37.965Z,1824.00
2023-05-18T05:51:37.962Z,1836.00
2023-05-18T05:52:37.964Z,1848.00
2023-05-18T05:53:37.957Z,1864.00
2023-05-18T05:54:37.960Z,1876.00
2023-05-18T05:55:37.961Z,1888.00
2023-05-18T05:56:37.966Z,1900.00
2023-05-18T05:57:38.038Z,1916.00
2023-05-18T05:58:37.970Z,1932.00
2023-05-18T05:59:37.955Z,1944.00
2023-05-18T06:00:37.961Z,1960.00
2023-05-18T06:01:37.985Z,1976.00
2023-05-18T06:02:38.217Z,1992.00
2023-05-18T06:03:38.026Z,2008.00
2023-05-18T06:04:38.008Z,2024.00
2023-05-18T06:05:37.959Z,2044.00
2023-05-18T06:06:37.956Z,2060.00
2023-05-18T06:07:37.965Z,2072.00
2023-05-18T06:08:37.951Z,2092.00
2023-05-18T06:09:37.964Z,2108.00
2023-05-18T06:10:37.982Z,2124.00
2023-05-18T06:11:37.976Z,2144.00
2023-05-18T06:12:37.956Z,2164.00
2023-05-18T06:13:37.971Z,2180.00
2023-05-18T06:14:37.957Z,2200.00
2023-05-18T06:15:37.957Z,2216.00
2023-05-18T06:16:37.993Z,2232.00
2023-05-18T06:17:37.963Z,2248.00
2023-05-18T06:18:37.975Z,2268.00
2023-05-18T06:19:37.953Z,2284.00
2023-05-18T06:20:37.945Z,2304.00
2023-05-18T06:21:37.951Z,2320.00
2023-05-18T06:22:37.950Z,2336.00
2023-05-18T06:23:40.287Z,2356.00
2023-05-18T06:24:37.952Z,2376.00
2023-05-18T06:25:37.965Z,2392.00
2023-05-18T06:26:37.951Z,2416.00
2023-05-18T06:27:37.951Z,2436.00
2023-05-18T06:28:37.947Z,2456.00
2023-05-18T06:29:37.987Z,2476.00
2023-05-18T06:30:37.946Z,2492.00
2023-05-18T06:31:38.011Z,2512.00
2023-05-18T06:32:37.960Z,2536.00
2023-05-18T06:33:37.948Z,2560.00
2023-05-18T06:34:37.940Z,2580.00
2023-05-18T06:35:37.943Z,2604.00
2023-05-18T06:36:37.946Z,2624.00
2023-05-18T06:37:37.947Z,2640.00
2023-05-18T06:38:37.944Z,2652.00
2023-05-18T06:39:37.954Z,2676.00
2023-05-18T06:40:37.947Z,2696.00
2023-05-18T06:41:37.952Z,2712.00
2023-05-18T06:42:37.941Z,2716.00
2023-05-18T06:43:37.947Z,2720.00
2023-05-18T06:44:37.968Z,2728.00
2023-05-18T06:45:38.338Z,2744.00
2023-05-18T06:46:38.097Z,2760.00
2023-05-18T06:47:38.028Z,2780.00
2023-05-18T06:48:37.945Z,2804.00
2023-05-18T06:49:37.946Z,2824.00
2023-05-18T06:50:37.941Z,2852.00
2023-05-18T06:51:37.952Z,2876.00
2023-05-18T06:52:37.944Z,2900.00
2023-05-18T06:53:37.950Z,2920.00
2023-05-18T06:54:37.937Z,2948.00
2023-05-18T06:55:37.946Z,2980.00
2023-05-18T06:56:37.943Z,3008.00
2023-05-18T06:57:37.955Z,3040.00
2023-05-18T06:58:37.940Z,3076.00
2023-05-18T06:59:37.962Z,3108.00
2023-05-18T07:00:37.942Z,3136.00
2023-05-18T07:01:38.041Z,3160.00
2023-05-18T07:02:37.983Z,3184.00
2023-05-18T07:03:37.981Z,3204.00
2023-05-18T07:04:37.949Z,3228.00
2023-05-18T07:05:39.459Z,3248.00
2023-05-18T07:06:37.942Z,3272.00
2023-05-18T07:07:38.048Z,3292.00
2023-05-18T07:08:37.953Z,3320.00
2023-05-18T07:09:37.946Z,3352.00
2023-05-18T07:10:37.938Z,3388.00
2023-05-18T07:11:37.962Z,3432.00
2023-05-18T07:12:37.942Z,3476.00
2023-05-18T07:13:37.953Z,3520.00
2023-05-18T07:14:37.943Z,3560.00
2023-05-18T07:15:37.993Z,3604.00
2023-05-18T07:16:38.024Z,3632.00
2023-05-18T07:17:37.997Z,3684.00
2023-05-18T07:18:37.987Z,3740.00
2023-05-18T07:19:37.944Z,3796.00
2023-05-18T07:20:37.945Z,3860.00
2023-05-18T07:21:37.952Z,3944.00
2023-05-18T07:22:37.948Z,3992.00
2023-05-18T07:23:37.962Z,4024.00
2023-05-18T07:24:37.955Z,4096.00
2023-05-18T07:25:37.947Z,4200.00
2023-05-18T07:26:37.946Z,4284.00
2023-05-18T07:27:37.942Z,4328.00
2023-05-18T07:28:37.957Z,4860.00
2023-05-18T07:29:37.954Z,5268.00
2023-05-18T07:30:37.946Z,4708.00
2023-05-18T07:31:37.996Z,4592.00
2023-05-18T07:32:37.989Z,4728.00
2023-05-18T07:33:40.426Z,4528.00
2023-05-18T07:34:37.952Z,4852.00
2023-05-18T07:35:37.951Z,5336.00
2023-05-18T07:36:37.943Z,5436.00
2023-05-18T07:37:37.948Z,5728.00
2023-05-18T07:38:37.947Z,6616.00
2023-05-18T07:39:37.956Z,6476.00
2023-05-18T07:40:37.946Z,6732.00
2023-05-18T07:41:37.949Z,7300.00
2023-05-18T07:42:37.947Z,7332.00
2023-05-18T07:43:37.998Z,6680.00
2023-05-18T07:44:37.948Z,6380.00
2023-05-18T07:45:37.954Z,6612.00
2023-05-18T07:46:38.038Z,6600.00
2023-05-18T07:47:37.972Z,9700.00
2023-05-18T07:48:40.501Z,31360.00
2023-05-18T07:49:37.986Z,48640.00
2023-05-18T07:50:37.960Z,8008.00
2023-05-18T07:51:37.955Z,6788.00
2023-05-18T07:52:37.954Z,6492.00
2023-05-18T07:53:38.002Z,6764.00
2023-05-18T07:54:37.957Z,68128.00
2023-05-18T07:55:37.962Z,65376.00
2023-05-18T07:56:37.972Z,76960.00
2023-05-18T07:57:37.975Z,72032.00
2023-05-18T07:58:37.964Z,53632.00
2023-05-18T07:59:37.967Z,51072.00
2023-05-18T08:00:37.962Z,57504.00
2023-05-18T08:01:38.036Z,58016.00
2023-05-18T08:02:38.216Z,81696.00
2023-05-18T08:03:38.050Z,89696.00
2023-05-18T08:04:37.967Z,87424.00
2023-05-18T08:05:38.007Z,83232.00
2023-05-18T08:06:37.982Z,88352.00
2023-05-18T08:07:38.044Z,72256.00
2023-05-18T08:08:38.010Z,82528.00
2023-05-18T08:09:37.991Z,72672.00
2023-05-18T08:10:37.984Z,83776.00
2023-05-18T08:11:37.990Z,80288.00
2023-05-18T08:12:37.995Z,78336.00
2023-05-18T08:13:37.995Z,72448.00
2023-05-18T08:14:37.997Z,71584.00
2023-05-18T08:15:38.006Z,74144.00
2023-05-18T08:16:38.055Z,72608.00
2023-05-18T08:17:38.036Z,49504.00
2023-05-18T08:18:38.073Z,74208.00
2023-05-18T08:19:39.800Z,70592.00
2023-05-18T08:20:38.021Z,16440.00
2023-05-18T08:21:38.075Z,70688.00
2023-05-18T08:22:38.036Z,61600.00
2023-05-18T08:23:38.054Z,19904.00
2023-05-18T08:24:38.050Z,18848.00
2023-05-18T08:25:38.059Z,14012.00
2023-05-18T08:26:38.063Z,7392.00
2023-05-18T08:27:38.072Z,6944.00
2023-05-18T08:28:38.074Z,6728.00
2023-05-18T08:29:38.091Z,6572.00
2023-05-18T08:30:38.079Z,6468.00
2023-05-18T08:31:38.129Z,6700.00
2023-05-18T08:32:38.201Z,6524.00
2023-05-18T08:33:38.109Z,6440.00
2023-05-18T08:34:38.120Z,6256.00
2023-05-18T08:35:38.121Z,6448.00
2023-05-18T08:36:38.121Z,6660.00
2023-05-18T08:37:38.155Z,8396.00
2023-05-18T08:38:38.172Z,12596.00
2023-05-18T08:39:38.144Z,66368.00
2023-05-18T08:40:38.156Z,69792.00
2023-05-18T08:41:38.159Z,22688.00
2023-05-18T08:42:49.487Z,15500.00
2023-05-18T08:43:38.158Z,13260.00
2023-05-18T08:44:38.168Z,15544.00
2023-05-18T08:45:38.178Z,9644.00
2023-05-18T08:46:38.175Z,7992.00
2023-05-18T08:47:38.211Z,7736.00
2023-05-18T08:48:38.315Z,8520.00
2023-05-18T08:49:38.196Z,8852.00
2023-05-18T08:50:38.199Z,9348.00
2023-05-18T08:51:38.223Z,12020.00
2023-05-18T08:52:38.211Z,15284.00
2023-05-18T08:53:38.298Z,24704.00
2023-05-18T08:54:38.219Z,17760.00
2023-05-18T08:55:38.223Z,75328.00
2023-05-18T08:56:38.226Z,98016.00
2023-05-18T08:57:38.267Z,104384.00
2023-05-18T08:58:38.238Z,97600.00
2023-05-18T08:59:38.246Z,92608.00
2023-05-18T09:00:38.268Z,49344.00
2023-05-18T09:01:38.358Z,15976.00
2023-05-18T09:02:38.287Z,63040.00
2023-05-18T09:03:38.290Z,65376.00
2023-05-18T09:04:38.498Z,40480.00
2023-05-18T09:05:38.286Z,53856.00
2023-05-18T09:06:38.295Z,62048.00
2023-05-18T09:07:38.339Z,21312.00
2023-05-18T09:08:38.309Z,18240.00
2023-05-18T09:09:38.364Z,15472.00
2023-05-18T09:10:38.336Z,15216.00
2023-05-18T09:11:38.339Z,13160.00
2023-05-18T09:12:38.329Z,12208.00
2023-05-18T09:13:38.360Z,12036.00
2023-05-18T09:14:38.354Z,13520.00
2023-05-18T09:15:38.378Z,23616.00
2023-05-18T09:16:38.405Z,98816.00
2023-05-18T09:17:38.470Z,80896.00
2023-05-18T09:18:38.408Z,102272.00
2023-05-18T09:19:38.389Z,107168.00
2023-05-18T09:20:38.399Z,112032.00
2023-05-18T09:21:38.406Z,111168.00
2023-05-18T09:22:38.413Z,104704.00
2023-05-18T09:23:38.424Z,96832.00
2023-05-18T09:24:38.433Z,69504.00
2023-05-18T09:25:38.468Z,18688.00
2023-05-18T09:26:38.462Z,19424.00
2023-05-18T09:27:38.496Z,93952.00
2023-05-18T09:28:38.480Z,75040.00
2023-05-18T09:29:38.486Z,17120.00
2023-05-18T09:30:38.511Z,14780.00
2023-05-18T09:31:38.598Z,15108.00
2023-05-18T09:32:38.560Z,17024.00
2023-05-18T09:33:38.726Z,18464.00
2023-05-18T09:34:38.540Z,21376.00
2023-05-18T09:35:39.224Z,19360.00
2023-05-18T09:36:38.560Z,17344.00
2023-05-18T09:37:38.655Z,23776.00
2023-05-18T09:38:38.584Z,21024.00
2023-05-18T09:39:38.596Z,19232.00
2023-05-18T09:40:38.605Z,22688.00
2023-05-18T09:41:38.645Z,95136.00
2023-05-18T09:42:38.635Z,15112.00
2023-05-18T09:43:38.638Z,13456.00
2023-05-18T09:44:38.648Z,87360.00
2023-05-18T09:45:38.655Z,13716.00
2023-05-18T09:46:38.704Z,12484.00
2023-05-18T09:47:38.688Z,12548.00
2023-05-18T09:48:38.691Z,11716.00
2023-05-18T09:49:38.699Z,10004.00
2023-05-18T09:50:38.701Z,9336.00
2023-05-18T09:51:38.713Z,9112.00
2023-05-18T09:52:38.716Z,8944.00
2023-05-18T09:53:38.733Z,9048.00
2023-05-18T09:54:38.736Z,9168.00
2023-05-18T09:55:38.767Z,9448.00
2023-05-18T09:56:38.755Z,9880.00
2023-05-18T09:57:38.877Z,12196.00
2023-05-18T09:58:38.770Z,24096.00
2023-05-18T09:59:38.790Z,22976.00
2023-05-18T10:00:38.827Z,92256.00
2023-05-18T10:01:38.798Z,83328.00
2023-05-18T10:02:38.844Z,22112.00
2023-05-18T10:03:38.809Z,10904.00
2023-05-18T10:04:38.859Z,11192.00
2023-05-18T10:05:39.062Z,14488.00
2023-05-18T10:06:38.830Z,14328.00
2023-05-18T10:07:38.847Z,15572.00
2023-05-18T10:08:38.847Z,14072.00
2023-05-18T10:09:38.862Z,14800.00
2023-05-18T10:10:38.860Z,18752.00
2023-05-18T10:11:38.876Z,33056.00
2023-05-18T10:12:38.880Z,81568.00
2023-05-18T10:13:38.960Z,30144.00
2023-05-18T10:14:38.895Z,24448.00
2023-05-18T10:15:38.893Z,28800.00
2023-05-18T10:16:38.926Z,45184.00
2023-05-18T10:17:39.054Z,31872.00
2023-05-18T10:18:39.091Z,63296.00
2023-05-18T10:19:38.925Z,50400.00
2023-05-18T10:20:38.937Z,54720.00
2023-05-18T10:21:38.941Z,52736.00
2023-05-18T10:22:38.950Z,86784.00
2023-05-18T10:23:38.954Z,93824.00
2023-05-18T10:24:38.968Z,91616.00
2023-05-18T10:25:38.972Z,95200.00
2023-05-18T10:26:38.984Z,93344.00
2023-05-18T10:27:38.996Z,95648.00
2023-05-18T10:28:38.999Z,101824.00
2023-05-18T10:29:39.062Z,101760.00
2023-05-18T10:30:39.050Z,97184.00
2023-05-18T10:31:39.039Z,91840.00
2023-05-18T10:32:39.079Z,90560.00
2023-05-18T10:33:39.114Z,89472.00
2023-05-18T10:34:39.068Z,91712.00
2023-05-18T10:35:39.083Z,89984.00
2023-05-18T10:36:39.096Z,86464.00
2023-05-18T10:37:39.107Z,88800.00
2023-05-18T10:39:51.741Z,87168.00
2023-05-18T10:43:47.700Z,92192.00
2023-05-18T10:44:47.751Z,99008.00
2023-05-18T10:45:47.736Z,92736.00
2023-05-18T10:46:47.893Z,87648.00
2023-05-18T10:47:47.871Z,85120.00
2023-05-18T10:48:48.044Z,40480.00
2023-05-18T10:49:47.811Z,102656.00
2023-05-18T10:50:47.809Z,107680.00
2023-05-18T10:51:47.826Z,81664.00
2023-05-18T10:52:47.841Z,17536.00
2023-05-18T10:53:47.866Z,18016.00
2023-05-18T10:54:47.869Z,19040.00
2023-05-18T10:55:47.881Z,16644.00
2023-05-18T10:56:47.981Z,11944.00
2023-05-18T10:57:47.922Z,10688.00
2023-05-18T10:58:47.929Z,9904.00
2023-05-18T10:59:48.509Z,9580.00
2023-05-18T11:00:48.099Z,9236.00
2023-05-18T11:01:48.019Z,9056.00
2023-05-18T11:02:48.052Z,8756.00
2023-05-18T11:03:48.009Z,8720.00
2023-05-18T11:04:48.167Z,9184.00
2023-05-18T11:05:48.028Z,9580.00
2023-05-18T11:06:48.046Z,10432.00
2023-05-18T11:07:48.055Z,12460.00
2023-05-18T11:08:48.158Z,11232.00
2023-05-18T11:09:48.088Z,9784.00
2023-05-18T11:10:48.101Z,8468.00
2023-05-18T11:11:48.115Z,7876.00
2023-05-18T11:12:48.126Z,7664.00
2023-05-18T11:13:48.156Z,7436.00
2023-05-18T11:14:48.146Z,7408.00
2023-05-18T11:15:48.184Z,7940.00
2023-05-18T11:16:48.324Z,8348.00
2023-05-18T11:17:48.235Z,9616.00
2023-05-18T11:18:48.221Z,11596.00
2023-05-18T11:19:48.200Z,21728.00
2023-05-18T11:20:48.210Z,12892.00
2023-05-18T11:21:48.217Z,13608.00
2023-05-18T11:22:48.232Z,15144.00
2023-05-18T11:23:48.239Z,13828.00
2023-05-18T11:24:48.253Z,13152.00
2023-05-18T11:25:48.256Z,12380.00
2023-05-18T11:26:48.276Z,11780.00
2023-05-18T11:27:48.274Z,13696.00
2023-05-18T11:28:49.697Z,21216.00
2023-05-18T11:29:48.300Z,19872.00
2023-05-18T11:30:48.322Z,18976.00
2023-05-18T11:31:48.371Z,18496.00
2023-05-18T11:32:48.379Z,18368.00
2023-05-18T11:33:48.397Z,18176.00
2023-05-18T11:34:48.346Z,18656.00
2023-05-18T11:35:48.352Z,18528.00
2023-05-18T11:36:48.362Z,18976.00
2023-05-18T11:37:48.373Z,20256.00
2023-05-18T11:38:48.388Z,20192.00
2023-05-18T11:39:58.418Z,20832.00
2023-05-18T11:40:48.405Z,16768.00
2023-05-18T11:41:48.408Z,11236.00
2023-05-18T11:42:48.428Z,9468.00
2023-05-18T11:43:48.431Z,20288.00
2023-05-18T11:44:48.441Z,9092.00
2023-05-18T11:45:48.452Z,9344.00
2023-05-18T11:46:48.467Z,11256.00
2023-05-18T11:47:48.535Z,20352.00
2023-05-18T11:48:48.686Z,21376.00
2023-05-18T11:49:48.491Z,12144.00
2023-05-18T11:50:48.499Z,15800.00
2023-05-18T11:51:48.506Z,14256.00
2023-05-18T11:52:48.533Z,18848.00
2023-05-18T11:53:48.534Z,12548.00
2023-05-18T11:54:48.537Z,12368.00
2023-05-18T11:55:48.557Z,12480.00
2023-05-18T11:56:48.577Z,13344.00
2023-05-18T11:57:48.566Z,10996.00
2023-05-18T11:58:48.580Z,11472.00
2023-05-18T11:59:48.588Z,10768.00
2023-05-18T12:00:48.611Z,10116.00
2023-05-18T12:01:48.632Z,11932.00
2023-05-18T12:02:48.784Z,13712.00
2023-05-18T12:03:48.864Z,20032.00
2023-05-18T12:04:48.675Z,19104.00
2023-05-18T12:05:48.636Z,18688.00
2023-05-18T12:06:48.649Z,18208.00
2023-05-18T12:07:48.662Z,17952.00
2023-05-18T12:08:48.681Z,18048.00
2023-05-18T12:09:48.679Z,18752.00
2023-05-18T12:10:48.687Z,19040.00
2023-05-18T12:11:48.701Z,18528.00
2023-05-18T12:12:48.707Z,18208.00
2023-05-18T12:13:48.711Z,18016.00
2023-05-18T12:14:48.734Z,17696.00
2023-05-18T12:15:48.731Z,17536.00
2023-05-18T12:16:48.811Z,17472.00
2023-05-18T12:17:48.784Z,17696.00
2023-05-18T12:18:48.865Z,17984.00
2023-05-18T12:19:48.765Z,17152.00
2023-05-18T12:20:48.802Z,16448.00
2023-05-18T12:21:48.785Z,16064.00
2023-05-18T12:22:48.819Z,15276.00
2023-05-18T12:23:48.805Z,15748.00